Terminal Aerodrome Forecast
Issued by NWS

Home | Current Version | Previous Version | Text Only | Print | Product List | Glossary On
Versions: 1 2 3 4 5 6 7 8 9 10 11 12 13
000
FTUS42 KMLB 221909 AAA
TAFFPR
TAF AMD
KFPR 221909Z 2219/2318 05012KT P6SM SKC
     FM230000 10007KT P6SM FEW030 SCT060 BKN100
     FM230300 08004KT P6SM FEW040 SCT250
      TEMPO 2309/2312 3SM BR SCT005
     FM231400 07008KT P6SM SCT035=

USA.gov is the U.S. government's official web portal to all federal, state and local government web resources and services.